Time;durP1;ratioP1;P1;durP2;ratioP2;P2;SDS_P1;SDS_P2;PMS_P1;PMS_P2;Temp;Humidity;BMP_temperature;BMP_pressure;BME280_temperature;BME280_humidity;BME280_pressure;Samples;Min_cycle;Max_cycle;Signal;HPM_P1;HPM_P2
2022/06/14 00:01:17;;;;;;;8.03;4.77;;;16.40;67.30;;;;;;21083119;28;20239;-65
2022/06/14 00:11:23;;;;;;;7.70;5.10;;;16.20;67.70;;;;;;21082775;28;20287;-65
2022/06/14 00:21:25;;;;;;;9.90;4.90;;;16.10;68.10;;;;;;21081379;28;20240;-64
2022/06/14 00:31:28;;;;;;;8.80;4.90;;;16.00;68.60;;;;;;21080974;28;20842;-63
2022/06/14 00:41:46;;;;;;;7.77;5.47;;;15.90;69.10;;;;;;21080456;28;20234;-65
2022/06/14 00:52:03;;;;;;;8.87;5.20;;;15.80;69.80;;;;;;21079398;28;20214;-63
2022/06/14 01:02:28;;;;;;;10.03;4.70;;;15.70;70.20;;;;;;21078954;28;20252;-64
2022/06/14 01:12:35;;;;;;;7.90;5.00;;;15.60;70.80;;;;;;21078400;28;20228;-66
2022/06/14 01:22:37;;;;;;;9.23;4.70;;;15.50;71.10;;;;;;21078433;28;20237;-67
2022/06/14 01:32:55;;;;;;;7.97;4.77;;;15.30;71.50;;;;;;21077386;28;20772;-67
2022/06/14 01:43:35;;;;;;;13.13;5.40;;;15.30;72.10;;;;;;21077171;28;20230;-63
2022/06/14 01:53:44;;;;;;;7.27;4.83;;;15.20;72.30;;;;;;21077466;28;20223;-67
2022/06/14 02:04:37;;;;;;;7.03;4.83;;;15.10;72.80;;;;;;21076579;28;20238;-64
2022/06/14 02:14:59;;;;;;;7.63;5.10;;;14.90;73.10;;;;;;21086715;28;20213;-66
2022/06/14 02:25:12;;;;;;;9.10;5.27;;;14.70;73.70;;;;;;21091125;28;20783;-65
2022/06/14 02:35:24;;;;;;;8.07;5.27;;;14.60;75.10;;;;;;21090503;28;20288;-63
2022/06/14 02:45:33;;;;;;;11.30;4.63;;;14.70;74.80;;;;;;21089579;28;20234;-64
2022/06/14 02:55:48;;;;;;;8.27;4.87;;;14.50;74.80;;;;;;21088874;28;20215;-62
2022/06/14 03:06:05;;;;;;;9.37;5.00;;;14.40;75.40;;;;;;21087612;28;20581;-64
2022/06/14 03:16:24;;;;;;;12.30;5.17;;;14.40;75.50;;;;;;21086958;28;20209;-63
2022/06/14 03:27:01;;;;;;;13.83;5.20;;;14.20;76.20;;;;;;21068271;28;20234;-64
2022/06/14 03:37:03;;;;;;;11.63;5.10;;;14.10;76.50;;;;;;21054831;28;20258;-63
2022/06/14 03:47:22;;;;;;;8.43;5.20;;;14.10;76.70;;;;;;21085759;28;20230;-62
2022/06/14 03:57:41;;;;;;;7.00;5.00;;;14.00;77.10;;;;;;21083823;28;20220;-63
2022/06/14 04:07:56;;;;;;;8.73;5.00;;;14.00;77.40;;;;;;21082836;28;20245;-63
2022/06/14 04:28:51;;;;;;;6.47;5.10;;;14.00;78.20;;;;;;21080314;28;20589;-63
2022/06/14 04:39:02;;;;;;;8.30;5.63;;;14.10;78.50;;;;;;21080359;28;20206;-68
2022/06/14 04:49:17;;;;;;;10.47;5.37;;;14.30;78.70;;;;;;21079561;28;20570;-65
2022/06/14 04:59:26;;;;;;;10.87;5.60;;;14.40;78.80;;;;;;21083221;28;20198;-68
2022/06/14 05:09:36;;;;;;;9.97;5.70;;;14.70;79.10;;;;;;21078550;28;20202;-65
2022/06/14 05:19:43;;;;;;;14.83;5.50;;;14.90;78.90;;;;;;21077024;28;20803;-68
2022/06/14 05:29:59;;;;;;;9.47;5.60;;;15.10;79.60;;;;;;21075691;28;20284;-67
2022/06/14 05:40:26;;;;;;;11.23;6.87;;;15.30;78.50;;;;;;21076809;28;20230;-66
2022/06/14 05:50:35;;;;;;;21.90;6.00;;;15.30;78.60;;;;;;21068847;28;20255;-70
2022/06/14 06:00:43;;;;;;;12.97;5.90;;;15.40;78.70;;;;;;21090422;28;20242;-67
2022/06/14 06:10:48;;;;;;;12.77;5.10;;;15.90;78.10;;;;;;21088214;28;20668;-68
2022/06/14 06:20:54;;;;;;;14.80;5.87;;;16.10;77.10;;;;;;21087074;28;20680;-68
2022/06/14 06:30:58;;;;;;;15.67;5.47;;;16.40;76.30;;;;;;21087700;28;20268;-71
2022/06/14 06:51:41;;;;;;;16.53;7.67;;;17.40;74.40;;;;;;21087195;28;20215;-71
2022/06/14 07:01:44;;;;;;;27.53;16.50;;;17.40;75.00;;;;;;21086222;28;20235;-70
2022/06/14 07:11:59;;;;;;;21.50;11.10;;;17.70;73.80;;;;;;21086020;28;20221;-71
2022/06/14 07:22:13;;;;;;;21.27;9.33;;;18.10;72.50;;;;;;21086088;28;20319;-71
2022/06/14 07:32:26;;;;;;;18.40;9.40;;;18.50;71.20;;;;;;21084116;28;20243;-70
2022/06/14 07:42:39;;;;;;;6.10;3.67;;;19.10;69.00;;;;;;21083046;28;20251;-71
2022/06/14 07:52:52;;;;;;;6.73;4.07;;;19.30;68.00;;;;;;21082401;28;20729;-70
2022/06/14 08:03:03;;;;;;;6.30;3.30;;;19.60;66.30;;;;;;21081273;28;20289;-70
2022/06/14 08:13:09;;;;;;;6.93;3.27;;;20.00;64.70;;;;;;21081412;28;20212;-70
2022/06/14 08:23:25;;;;;;;7.20;3.10;;;20.30;63.40;;;;;;21081307;28;20280;-71
2022/06/14 08:33:40;;;;;;;10.20;3.27;;;20.50;61.90;;;;;;21061374;28;20287;-71
2022/06/14 08:43:49;;;;;;;9.17;5.23;;;20.70;60.90;;;;;;21079391;28;20238;-71
2022/06/14 08:54:16;;;;;;;5.47;2.90;;;20.80;59.70;;;;;;21060717;28;20715;-70
2022/06/14 09:04:51;;;;;;;6.73;3.10;;;21.10;56.60;;;;;;21077582;28;20234;-70
2022/06/14 09:15:05;;;;;;;8.33;5.00;;;21.30;54.00;;;;;;21076890;28;20570;-71
2022/06/14 09:25:09;;;;;;;6.60;3.60;;;21.50;53.30;;;;;;21076664;28;20238;-71
2022/06/14 09:35:26;;;;;;;5.10;2.77;;;21.60;52.40;;;;;;21075686;28;20206;-71
2022/06/14 09:45:44;;;;;;;23.30;11.10;;;21.70;51.20;;;;;;21074914;28;20245;-71
2022/06/14 09:55:58;;;;;;;9.03;3.67;;;22.00;50.60;;;;;;21074693;28;20285;-71
2022/06/14 10:06:06;;;;;;;8.23;5.17;;;22.20;49.80;;;;;;21074075;28;20226;-71
2022/06/14 10:16:52;;;;;;;9.63;4.93;;;22.30;49.20;;;;;;21074310;28;20303;-70
2022/06/14 10:38:00;;;;;;;8.07;3.70;;;22.50;48.10;;;;;;21088173;28;20210;-69
2022/06/14 10:48:08;;;;;;;5.27;3.20;;;22.50;47.70;;;;;;21087709;28;20230;-71
2022/06/14 10:58:43;;;;;;;6.83;3.20;;;22.70;47.40;;;;;;21087153;28;20199;-70
2022/06/14 11:08:59;;;;;;;5.53;2.60;;;22.80;47.10;;;;;;21086888;28;20230;-70
2022/06/14 11:19:31;;;;;;;6.33;3.37;;;22.80;46.20;;;;;;21086117;28;20221;-71
2022/06/14 11:29:51;;;;;;;3.70;2.83;;;22.90;45.80;;;;;;21085073;28;20241;-71
2022/06/14 11:40:16;;;;;;;4.30;2.60;;;23.00;45.20;;;;;;21084030;28;20203;-72
2022/06/14 11:50:39;;;;;;;5.23;2.30;;;23.20;44.90;;;;;;21083314;28;20286;-71
2022/06/14 12:01:03;;;;;;;3.60;2.20;;;23.30;43.50;;;;;;21081957;28;20256;-70
2022/06/14 12:11:26;;;;;;;4.00;2.00;;;23.50;42.60;;;;;;21079042;28;20288;-71
2022/06/14 12:21:51;;;;;;;8.07;2.23;;;23.80;42.50;;;;;;20967155;28;20243;-66
2022/06/14 12:32:13;;;;;;;6.50;2.40;;;24.20;42.80;;;;;;20936194;28;20273;-68
2022/06/14 12:42:26;;;;;;;3.57;2.00;;;24.40;43.10;;;;;;20994247;28;20559;-69
2022/06/14 12:52:36;;;;;;;5.17;2.10;;;24.40;41.80;;;;;;20992069;28;20210;-69
2022/06/14 13:03:00;;;;;;;3.40;2.00;;;24.50;40.80;;;;;;20994951;28;20257;-69
2022/06/14 13:13:21;;;;;;;4.53;2.40;;;24.50;40.70;;;;;;20993787;28;20203;-69
2022/06/14 13:23:58;;;;;;;4.33;2.50;;;24.50;40.50;;;;;;20994295;28;20637;-68
2022/06/14 13:34:57;;;;;;;7.03;2.00;;;24.50;40.50;;;;;;20894730;28;20561;-69
2022/06/14 13:45:02;;;;;;;4.67;2.00;;;24.60;40.40;;;;;;20953608;28;20231;-68
2022/06/14 13:55:14;;;;;;;8.50;2.03;;;24.70;40.20;;;;;;20995039;28;20729;-68
2022/06/14 14:05:28;;;;;;;9.70;1.90;;;24.80;40.10;;;;;;20995465;28;20673;-69
2022/06/14 14:15:49;;;;;;;3.47;2.20;;;24.80;39.80;;;;;;21005749;28;20689;-69
2022/06/14 14:26:24;;;;;;;7.53;1.97;;;24.90;39.60;;;;;;21003872;28;20239;-68
2022/06/14 14:36:34;;;;;;;4.27;2.00;;;25.20;39.30;;;;;;21006752;28;20681;-68
2022/06/14 14:46:47;;;;;;;2.93;1.70;;;25.20;38.70;;;;;;21004844;28;20230;-69
2022/06/14 14:57:07;;;;;;;15.53;2.90;;;25.30;38.50;;;;;;21003380;28;20211;-68
2022/06/14 15:07:25;;;;;;;3.03;1.73;;;25.50;38.30;;;;;;21003877;28;20235;-68
2022/06/14 15:28:14;;;;;;;3.60;1.63;;;25.80;37.30;;;;;;21002126;28;20772;-68
2022/06/14 15:38:48;;;;;;;5.10;1.80;;;25.70;36.80;;;;;;21001912;28;20200;-67
2022/06/14 15:49:12;;;;;;;3.67;1.90;;;25.70;36.50;;;;;;21001204;28;20259;-67
2022/06/14 15:59:22;;;;;;;5.00;1.50;;;26.40;35.80;;;;;;20999715;28;20211;-68
2022/06/14 16:09:34;;;;;;;6.15;1.80;;;27.30;35.00;;;;;;20998583;28;20326;-68
2022/06/14 16:19:46;;;;;;;2.80;1.50;;;28.80;33.40;;;;;;20998736;28;20265;-69
2022/06/14 16:30:18;;;;;;;2.90;1.60;;;29.20;33.00;;;;;;20996625;28;20238;-67
2022/06/14 16:40:27;;;;;;;3.23;1.60;;;27.70;33.50;;;;;;20996538;28;20261;-67
2022/06/14 16:51:07;;;;;;;6.37;1.53;;;26.70;34.10;;;;;;20996312;28;20207;-69
2022/06/14 17:01:19;;;;;;;2.00;1.50;;;26.10;34.10;;;;;;20906827;28;20591;-68
2022/06/14 17:11:46;;;;;;;2.80;1.30;;;25.90;34.00;;;;;;20994892;28;20203;-67
2022/06/14 17:22:14;;;;;;;4.50;1.37;;;25.70;33.80;;;;;;20994628;28;20733;-67
2022/06/14 17:32:24;;;;;;;3.90;1.50;;;25.70;33.80;;;;;;20993806;28;20238;-69
2022/06/14 17:42:34;;;;;;;3.57;1.50;;;25.60;34.30;;;;;;20957972;28;20260;-66
2022/06/14 17:52:49;;;;;;;6.80;1.43;;;25.80;34.40;;;;;;20947136;28;20202;-65
2022/06/14 18:03:05;;;;;;;4.83;1.67;;;25.40;35.00;;;;;;20918143;28;20273;-63
2022/06/14 18:13:24;;;;;;;1.80;1.33;;;25.30;35.50;;;;;;20925458;28;20204;-68
2022/06/14 18:23:38;;;;;;;6.33;1.83;;;25.00;35.90;;;;;;20926356;28;20595;-64
2022/06/14 18:33:53;;;;;;;8.10;1.67;;;24.80;36.30;;;;;;20904983;28;20235;-67
2022/06/14 18:44:09;;;;;;;2.23;1.70;;;24.50;37.20;;;;;;20920668;28;20266;-67
2022/06/14 18:54:15;;;;;;;4.00;1.87;;;24.30;37.50;;;;;;20942607;28;20439;-65
2022/06/14 19:04:23;;;;;;;2.20;1.70;;;24.40;38.90;;;;;;20979207;28;20702;-66
2022/06/14 19:14:24;;;;;;;2.90;1.73;;;23.90;39.10;;;;;;20928514;28;20200;-69
2022/06/14 19:24:37;;;;;;;2.40;1.60;;;23.60;39.50;;;;;;20932033;28;20234;-65
2022/06/14 19:34:45;;;;;;;4.23;2.20;;;23.40;39.60;;;;;;21000765;28;20214;-68
2022/06/14 19:44:56;;;;;;;9.60;2.00;;;23.20;39.90;;;;;;20998767;28;20238;-66
2022/06/14 20:05:33;;;;;;;7.40;2.70;;;22.70;42.20;;;;;;20925655;28;20634;-66
2022/06/14 20:15:49;;;;;;;6.83;2.90;;;22.40;44.20;;;;;;20914369;28;20698;-66
2022/06/14 20:25:55;;;;;;;8.07;2.47;;;22.10;46.80;;;;;;20910757;28;20243;-66
2022/06/14 20:35:57;;;;;;;13.00;2.67;;;21.80;47.70;;;;;;20912887;28;20652;-67
2022/06/14 20:45:59;;;;;;;7.10;2.20;;;21.40;48.80;;;;;;20911843;28;20239;-67
2022/06/14 20:56:10;;;;;;;9.00;2.30;;;21.30;50.00;;;;;;20909422;28;20633;-65
2022/06/14 21:06:14;;;;;;;3.80;2.13;;;21.00;50.30;;;;;;20981419;28;20703;-68
2022/06/14 21:16:18;;;;;;;5.40;2.17;;;20.80;50.70;;;;;;20992802;28;20214;-69
2022/06/14 21:26:21;;;;;;;4.17;1.90;;;20.30;50.90;;;;;;20974024;28;20784;-67
2022/06/14 21:36:59;;;;;;;2.90;1.87;;;20.30;51.60;;;;;;20992081;28;20202;-69
2022/06/14 21:47:05;;;;;;;2.23;1.80;;;20.00;52.30;;;;;;20937577;28;20241;-68
2022/06/14 21:57:18;;;;;;;7.40;1.90;;;19.70;53.10;;;;;;20970277;28;20659;-69
2022/06/14 22:07:20;;;;;;;3.57;1.77;;;19.50;54.10;;;;;;20908000;28;20238;-69
2022/06/14 22:17:24;;;;;;;4.73;1.87;;;19.30;55.30;;;;;;20907406;28;20661;-69
2022/06/14 22:27:34;;;;;;;3.93;2.23;;;19.10;55.20;;;;;;20910905;28;20240;-68
2022/06/14 22:37:39;;;;;;;6.30;2.00;;;18.90;55.40;;;;;;20922044;28;20228;-69
2022/06/14 22:47:43;;;;;;;5.80;1.90;;;18.80;55.90;;;;;;20920967;28;20244;-69
2022/06/14 22:57:50;;;;;;;3.90;2.27;;;18.70;56.00;;;;;;20929532;28;20219;-69
2022/06/14 23:07:52;;;;;;;5.00;2.30;;;18.40;56.50;;;;;;21004893;28;20239;-69
2022/06/14 23:17:55;;;;;;;3.57;1.70;;;18.50;57.20;;;;;;21003662;28;20267;-69
2022/06/14 23:27:57;;;;;;;4.33;2.13;;;18.30;57.50;;;;;;21002735;28;20245;-68
2022/06/14 23:37:59;;;;;;;6.17;1.90;;;18.20;57.90;;;;;;21002886;28;20208;-70
2022/06/14 23:48:02;;;;;;;4.43;2.20;;;17.90;58.20;;;;;;21001342;28;20240;-67
2022/06/14 23:58:04;;;;;;;2.90;1.93;;;17.80;58.30;;;;;;20990316;28;20201;-66
